Time;durP1;ratioP1;P1;durP2;ratioP2;P2;SDS_P1;SDS_P2;PMS_P1;PMS_P2;Temp;Humidity;BMP_temperature;BMP_pressure;BME280_temperature;BME280_humidity;BME280_pressure;Samples;Min_cycle;Max_cycle;Signal;HPM_P1;HPM_P2
2021/08/28 00:01:56;;;;;;;2.10;1.13;;;;;;;19.84;57.98;102297.38;5053290;28;20021;-60
2021/08/28 00:04:22;;;;;;;3.10;0.98;;;;;;;19.85;57.38;102300.97;5053107;28;20243;-60
2021/08/28 00:06:47;;;;;;;2.38;1.02;;;;;;;19.92;57.77;102291.19;5053411;28;20029;-59
2021/08/28 00:09:12;;;;;;;2.35;1.10;;;;;;;19.81;57.95;102300.38;5053284;28;20033;-60
2021/08/28 00:11:38;;;;;;;1.90;1.10;;;;;;;19.85;57.15;102301.84;5054229;28;20025;-59
2021/08/28 00:14:03;;;;;;;1.77;1.02;;;;;;;19.82;58.18;102296.69;5052854;28;20051;-59
2021/08/28 00:16:29;;;;;;;1.85;1.00;;;;;;;19.83;57.86;102287.47;5053454;28;20032;-60
2021/08/28 00:18:54;;;;;;;2.22;1.17;;;;;;;19.74;57.30;102293.81;5053090;28;20024;-59
2021/08/28 00:21:20;;;;;;;2.58;0.90;;;;;;;19.72;58.01;102290.34;5052796;28;20032;-60
2021/08/28 00:23:45;;;;;;;1.90;0.85;;;;;;;19.78;58.35;102296.09;5053093;28;20037;-60
2021/08/28 00:26:11;;;;;;;2.08;1.00;;;;;;;19.75;58.04;102290.06;5052962;28;20045;-60
2021/08/28 00:28:36;;;;;;;2.28;0.85;;;;;;;19.86;57.09;102298.09;5052857;28;20553;-60
2021/08/28 00:31:01;;;;;;;2.53;1.10;;;;;;;19.83;58.33;102288.34;5052626;28;20177;-60
2021/08/28 00:33:27;;;;;;;2.08;0.90;;;;;;;19.74;58.56;102293.81;5052968;28;20017;-60
2021/08/28 00:35:52;;;;;;;2.95;1.10;;;;;;;19.74;57.11;102289.19;5052794;28;20452;-60
2021/08/28 00:38:17;;;;;;;3.83;0.93;;;;;;;19.78;58.84;102287.03;5052895;28;20024;-60
2021/08/28 00:40:43;;;;;;;3.85;1.10;;;;;;;19.77;57.54;102288.03;5052894;28;20025;-60
2021/08/28 00:43:08;;;;;;;2.85;1.00;;;;;;;19.77;57.11;102288.03;5052856;28;20013;-60
2021/08/28 00:45:41;;;;;;;3.08;1.10;;;;;;;19.76;57.70;102284.47;5045297;28;20070;-60
2021/08/28 00:48:09;;;;;;;2.00;0.93;;;;;;;19.72;57.74;102279.44;5076740;28;20154;-61
2021/08/28 00:50:36;;;;;;;2.75;1.27;;;;;;;19.74;57.24;102282.88;5077073;28;20031;-60
2021/08/28 00:53:02;;;;;;;2.78;1.17;;;;;;;19.68;57.85;102284.34;5076736;28;20035;-60
2021/08/28 00:55:32;;;;;;;4.20;1.25;;;;;;;19.66;58.10;102274.59;5077059;28;20028;-60
2021/08/28 00:58:01;;;;;;;1.73;0.82;;;;;;;19.69;57.39;102269.69;5076702;28;20416;-59
2021/08/28 01:00:27;;;;;;;2.47;1.20;;;;;;;19.65;57.54;102278.28;5076697;28;20514;-59
2021/08/28 01:02:54;;;;;;;2.95;1.10;;;;;;;19.63;57.54;102285.75;5076762;28;20032;-60
2021/08/28 01:05:28;;;;;;;2.13;1.08;;;;;;;19.65;57.52;102283.75;5076738;28;20103;-59
2021/08/28 01:08:09;;;;;;;2.22;1.30;;;;;;;19.62;58.00;102282.16;5076605;28;20052;-60
2021/08/28 01:10:38;;;;;;;2.35;0.90;;;;;;;19.59;57.93;102278.88;5076642;28;20060;-60
2021/08/28 01:13:10;;;;;;;3.60;1.30;;;;;;;19.59;57.40;102276.16;5076411;28;20046;-60
2021/08/28 01:15:37;;;;;;;1.67;0.70;;;;;;;19.64;58.57;102282.03;5076333;28;20535;-60
2021/08/28 01:18:04;;;;;;;4.68;1.10;;;;;;;19.66;57.83;102280.91;5076370;28;20557;-60
2021/08/28 01:20:50;;;;;;;3.35;0.73;;;;;;;19.62;57.78;102281.31;5075965;28;20505;-60
2021/08/28 01:23:17;;;;;;;4.18;1.45;;;;;;;19.57;57.04;102281.75;5076232;28;20029;-60
2021/08/28 01:25:44;;;;;;;4.20;1.00;;;;;;;19.63;57.76;102274.84;5076260;28;20025;-60
2021/08/28 01:28:12;;;;;;;2.17;0.82;;;;;;;19.64;58.15;102276.56;5076053;28;20496;-60
2021/08/28 01:30:42;;;;;;;2.95;1.20;;;;;;;19.59;57.75;102274.28;5076145;28;20460;-60
2021/08/28 01:33:09;;;;;;;2.45;1.40;;;;;;;19.60;57.85;102269.69;5076113;28;20024;-60
2021/08/28 01:35:36;;;;;;;2.35;1.00;;;;;;;19.60;57.65;102269.69;5076986;28;20106;-58
2021/08/28 01:38:03;;;;;;;2.53;1.05;;;;;;;19.59;58.04;102273.41;5076076;28;20036;-60
2021/08/28 01:40:29;;;;;;;2.00;1.00;;;;;;;19.61;57.83;102263.22;5075891;28;20024;-59
2021/08/28 01:42:56;;;;;;;2.30;0.98;;;;;;;19.52;58.53;102257.63;5075918;28;20416;-58
2021/08/28 01:45:24;;;;;;;3.67;1.00;;;;;;;19.55;58.37;102256.50;5076121;28;20020;-59
2021/08/28 01:47:52;;;;;;;3.05;1.13;;;;;;;19.70;57.85;102256.91;5076015;28;20059;-60
2021/08/28 01:50:21;;;;;;;1.80;1.00;;;;;;;19.60;57.93;102261.50;5075842;28;20020;-60
2021/08/28 01:52:48;;;;;;;1.85;0.93;;;;;;;19.55;58.69;102261.09;5075756;28;20070;-60
2021/08/28 01:55:13;;;;;;;3.60;0.90;;;;;;;19.58;57.75;102258.91;5075283;28;20064;-60
2021/08/28 01:57:39;;;;;;;2.78;1.35;;;;;;;19.58;58.33;102260.78;5075671;28;20072;-60
2021/08/28 02:00:05;;;;;;;2.70;1.15;;;;;;;19.60;57.75;102258.78;5075408;28;20170;-60
2021/08/28 02:02:31;;;;;;;2.30;1.00;;;;;;;19.57;58.16;102259.06;5075579;28;20032;-60
2021/08/28 02:04:57;;;;;;;3.00;1.15;;;;;;;19.60;58.12;102261.50;5075701;28;20111;-60
2021/08/28 02:07:31;;;;;;;4.53;1.20;;;;;;;19.53;58.06;102261.19;5075666;28;20024;-60
2021/08/28 02:10:05;;;;;;;4.27;1.10;;;;;;;19.55;58.69;102258.38;5073624;28;20060;-60
2021/08/28 02:12:30;;;;;;;1.38;0.75;;;;;;;19.59;59.00;102254.31;5063970;28;20043;-60
2021/08/28 02:15:06;;;;;;;2.08;1.23;;;;;;;19.50;57.29;102251.44;5073422;28;20028;-59
2021/08/28 02:17:35;;;;;;;2.22;1.00;;;;;;;19.53;58.06;102248.44;5075355;28;20025;-60
2021/08/28 02:20:04;;;;;;;0.90;0.80;;;;;;;19.50;57.92;102248.72;5075590;28;20069;-60
2021/08/28 02:22:35;;;;;;;4.63;1.38;;;;;;;19.51;57.51;102236.81;5075247;28;20028;-59
2021/08/28 02:25:15;;;;;;;5.40;0.77;;;;;;;19.55;58.42;102239.25;5074846;28;20024;-60
2021/08/28 02:27:49;;;;;;;4.70;1.30;;;;;;;19.51;58.00;102249.59;5075558;28;20450;-60
2021/08/28 02:30:18;;;;;;;2.23;0.83;;;;;;;19.39;59.14;102246.13;5075162;28;20078;-59
2021/08/28 02:32:53;;;;;;;2.28;1.00;;;;;;;19.43;57.77;102242.09;5077221;28;20029;-58
2021/08/28 02:35:20;;;;;;;2.30;1.10;;;;;;;19.46;58.97;102241.81;5078173;28;20465;-60
2021/08/28 02:37:47;;;;;;;2.40;1.20;;;;;;;19.52;58.20;102243.97;5074777;28;20035;-59
2021/08/28 02:40:18;;;;;;;1.77;1.00;;;;;;;19.44;58.95;102246.56;5074786;28;20020;-60
2021/08/28 02:42:44;;;;;;;3.63;1.08;;;;;;;19.50;58.30;102236.94;5075007;28;20099;-60
2021/08/28 02:45:15;;;;;;;3.30;0.98;;;;;;;19.50;58.80;102239.69;5071331;28;20444;-59
2021/08/28 02:47:43;;;;;;;2.58;1.05;;;;;;;19.51;58.55;102239.53;5055089;28;20021;-60
2021/08/28 02:50:12;;;;;;;5.15;1.10;;;;;;;19.43;58.28;102242.09;5036807;28;20436;-60
2021/08/28 02:52:39;;;;;;;2.40;1.20;;;;;;;19.42;58.78;102240.38;5054817;28;20025;-60
2021/08/28 02:55:05;;;;;;;2.80;1.35;;;;;;;19.39;57.80;102235.22;5054374;28;20074;-60
2021/08/28 02:57:32;;;;;;;2.92;1.00;;;;;;;19.41;58.87;102233.22;5054605;28;20108;-64
2021/08/28 02:59:58;;;;;;;2.78;0.77;;;;;;;19.51;57.87;102228.63;5054574;28;20029;-65
2021/08/28 03:02:25;;;;;;;3.08;1.13;;;;;;;19.41;58.60;102229.63;5054673;28;20032;-65
2021/08/28 03:04:50;;;;;;;3.67;1.25;;;;;;;19.39;59.15;102227.03;5036714;28;20187;-64
2021/08/28 03:07:17;;;;;;;1.90;0.98;;;;;;;19.49;58.33;102225.19;5053694;28;20104;-65
2021/08/28 03:09:45;;;;;;;4.65;1.13;;;;;;;19.46;57.83;102225.44;5054734;28;20035;-64
2021/08/28 03:12:11;;;;;;;3.03;1.13;;;;;;;19.45;58.53;102231.91;5057820;28;20097;-64
2021/08/28 03:14:36;;;;;;;2.85;0.80;;;;;;;19.35;58.39;102220.16;5054469;28;20439;-65
2021/08/28 03:17:04;;;;;;;1.33;0.70;;;;;;;19.42;58.64;102234.94;5054437;28;20377;-64
2021/08/28 03:19:38;;;;;;;4.25;1.10;;;;;;;19.46;58.56;102221.84;5060665;28;20029;-65
2021/08/28 03:22:33;;;;;;;1.27;1.10;;;;;;;19.46;58.23;102220.00;5055281;28;20029;-63
2021/08/28 03:24:58;;;;;;;;;;;;;;;19.40;58.41;102217.84;4992978;28;20117;-66
2021/08/28 03:27:25;;;;;;;3.50;1.20;;;;;;;19.41;58.84;102213.25;4993089;28;19996;-65
2021/08/28 03:29:51;;;;;;;2.65;0.70;;;;;;;19.41;58.46;102219.56;4992828;28;20042;-65
2021/08/28 03:32:18;;;;;;;2.97;1.23;;;;;;;19.37;58.20;102220.88;4992883;28;20352;-67
2021/08/28 03:34:43;;;;;;;2.00;0.80;;;;;;;19.47;58.75;102208.06;4992364;28;20038;-65
2021/08/28 03:37:09;;;;;;;3.40;1.40;;;;;;;19.39;58.28;102205.22;4994466;28;20419;-67
2021/08/28 03:39:38;;;;;;;2.05;0.65;;;;;;;19.33;58.23;102207.69;4992572;28;20466;-66
2021/08/28 03:42:03;;;;;;;1.30;0.80;;;;;;;19.31;58.44;102205.06;4992071;28;20113;-65
2021/08/28 03:44:28;;;;;;;3.30;1.02;;;;;;;19.39;57.97;102202.50;4992587;28;20431;-66
2021/08/28 03:46:54;;;;;;;1.38;0.85;;;;;;;19.46;58.45;102203.63;5009465;28;20025;-66
2021/08/28 03:49:19;;;;;;;1.85;0.90;;;;;;;19.40;58.37;102200.63;5015051;28;20044;-65
2021/08/28 03:51:45;;;;;;;2.17;0.80;;;;;;;19.38;58.71;102205.38;5016277;28;20038;-66
2021/08/28 03:54:11;;;;;;;2.47;0.73;;;;;;;19.37;58.23;102198.19;5012099;28;20442;-66
2021/08/28 03:56:37;;;;;;;3.45;0.80;;;;;;;19.34;58.66;102206.69;5011985;28;20439;-66
2021/08/28 03:59:02;;;;;;;1.80;0.98;;;;;;;19.43;58.14;102211.25;4992318;28;20602;-67
2021/08/28 04:01:27;;;;;;;1.42;0.70;;;;;;;19.53;58.25;102207.50;5014880;28;20048;-66
2021/08/28 04:03:53;;;;;;;2.85;0.73;;;;;;;20.36;55.93;102207.69;5033543;28;20378;-67
2021/08/28 04:06:19;;;;;;;1.75;0.98;;;;;;;20.71;55.42;102212.38;5037722;28;20029;-66
2021/08/28 04:08:48;;;;;;;1.25;0.70;;;;;;;21.00;54.75;102206.72;5033721;28;20044;-65
2021/08/28 04:11:15;;;;;;;1.95;0.73;;;;;;;21.15;54.14;102213.31;5033480;28;20025;-66
2021/08/28 04:13:41;;;;;;;1.52;0.60;;;;;;;21.22;54.24;102200.75;5033377;28;20045;-66
2021/08/28 04:16:06;;;;;;;1.83;1.00;;;;;;;21.33;54.81;102199.66;5033953;28;20025;-67
2021/08/28 04:18:33;;;;;;;2.85;0.80;;;;;;;21.42;54.26;102193.25;5035230;28;20032;-65
2021/08/28 04:20:58;;;;;;;0.93;0.57;;;;;;;21.50;54.53;102198.81;5039563;28;20366;-65
2021/08/28 04:23:24;;;;;;;1.08;0.70;;;;;;;21.50;54.35;102192.44;5033366;28;20032;-66
2021/08/28 04:25:49;;;;;;;2.25;0.90;;;;;;;21.53;54.33;102203.94;5031828;28;20021;-66
2021/08/28 04:28:14;;;;;;;1.23;0.70;;;;;;;21.58;54.88;102200.72;5033210;28;20466;-65
2021/08/28 04:30:40;;;;;;;1.00;0.60;;;;;;;21.66;54.76;102198.03;5033411;28;20389;-66
2021/08/28 04:33:05;;;;;;;1.88;0.75;;;;;;;21.75;55.43;102199.81;5033167;28;20056;-66
2021/08/28 04:35:31;;;;;;;2.10;0.85;;;;;;;21.72;55.40;102202.88;5033170;28;20100;-65
2021/08/28 04:37:56;;;;;;;2.00;0.90;;;;;;;21.73;54.99;102199.13;5037204;28;20029;-66
2021/08/28 04:40:23;;;;;;;1.67;0.63;;;;;;;21.82;54.79;102200.00;5033055;28;20021;-66
2021/08/28 04:42:49;;;;;;;1.90;0.75;;;;;;;21.80;54.70;102200.19;5033046;28;20029;-65
2021/08/28 04:45:14;;;;;;;1.38;0.60;;;;;;;21.81;55.24;102196.41;5033135;28;20108;-66
2021/08/28 04:47:40;;;;;;;0.90;0.52;;;;;;;21.81;55.78;102195.56;5033119;28;20478;-65
2021/08/28 04:50:06;;;;;;;0.70;0.50;;;;;;;21.85;56.04;102197.84;5033020;28;20025;-65
2021/08/28 04:52:32;;;;;;;1.35;0.90;;;;;;;21.83;55.65;102199.84;5035397;28;20033;-65
2021/08/28 04:54:57;;;;;;;1.85;0.60;;;;;;;21.90;55.97;102200.06;5032861;28;20457;-64
2021/08/28 04:57:23;;;;;;;1.63;0.63;;;;;;;21.90;55.74;102200.94;5044636;28;20086;-65
2021/08/28 04:59:48;;;;;;;1.70;0.68;;;;;;;21.99;55.11;102200.97;5072978;28;20024;-65
2021/08/28 05:02:13;;;;;;;0.95;0.60;;;;;;;21.96;55.79;102198.56;5072752;28;20029;-65
2021/08/28 05:04:38;;;;;;;0.85;0.60;;;;;;;21.99;56.04;102209.19;5076658;28;20000;-64
2021/08/28 05:07:04;;;;;;;1.20;0.60;;;;;;;22.03;57.34;102205.13;5076901;28;20020;-64
2021/08/28 05:09:29;;;;;;;1.85;0.80;;;;;;;21.99;56.14;102200.97;5054956;28;20108;-65
2021/08/28 05:12:02;;;;;;;0.90;0.70;;;;;;;22.03;56.75;102199.66;5080659;28;20072;-64
2021/08/28 05:14:28;;;;;;;1.55;0.93;;;;;;;22.01;56.51;102191.59;5073932;28;20558;-64
2021/08/28 05:16:53;;;;;;;1.13;0.80;;;;;;;22.00;56.25;102178.91;5072680;28;20059;-65
2021/08/28 05:19:18;;;;;;;2.00;0.90;;;;;;;22.05;56.02;102186.69;5072863;28;20029;-65
2021/08/28 05:21:46;;;;;;;2.05;0.73;;;;;;;22.05;57.19;102182.06;5075551;28;20025;-63
2021/08/28 05:24:12;;;;;;;1.02;0.60;;;;;;;22.00;57.36;102189.84;5072776;28;20405;-65
2021/08/28 05:26:37;;;;;;;1.40;0.73;;;;;;;22.10;56.83;102195.25;5072820;28;20075;-64
2021/08/28 05:29:02;;;;;;;3.75;0.95;;;;;;;22.10;57.02;102192.50;5072289;28;20051;-65
2021/08/28 05:31:27;;;;;;;1.08;0.63;;;;;;;22.07;57.21;102192.84;5075584;28;20498;-65
2021/08/28 05:33:53;;;;;;;2.50;0.85;;;;;;;22.12;56.75;102193.19;5076194;28;20038;-65
2021/08/28 05:36:18;;;;;;;2.55;0.90;;;;;;;22.06;57.41;102178.28;5077124;28;20028;-65
2021/08/28 05:38:43;;;;;;;1.25;0.80;;;;;;;22.08;56.38;102181.72;5083629;28;20453;-66
2021/08/28 05:41:09;;;;;;;3.15;1.13;;;;;;;22.10;56.60;102174.19;5075702;28;20052;-65
2021/08/28 05:43:34;;;;;;;2.28;0.73;;;;;;;22.13;56.86;102173.00;5076461;28;20056;-66
2021/08/28 05:45:59;;;;;;;1.02;0.75;;;;;;;22.13;56.36;102173.00;5065606;28;20035;-66
2021/08/28 05:48:25;;;;;;;1.70;0.93;;;;;;;22.14;57.67;102163.75;5056082;28;20428;-65
2021/08/28 05:50:50;;;;;;;0.70;0.65;;;;;;;22.11;57.27;102175.06;5075531;28;20038;-66
2021/08/28 05:53:16;;;;;;;1.23;0.88;;;;;;;22.12;58.18;102176.75;5076936;28;20034;-65
2021/08/28 05:55:42;;;;;;;2.60;1.02;;;;;;;22.09;57.60;102166.16;5075990;28;20025;-65
2021/08/28 05:58:07;;;;;;;1.83;1.00;;;;;;;22.15;58.16;102165.47;5075833;28;20452;-66
2021/08/28 06:00:33;;;;;;;1.42;0.88;;;;;;;22.15;57.79;102168.22;5075932;28;20453;-65
2021/08/28 06:02:58;;;;;;;2.03;0.82;;;;;;;22.17;57.71;102168.91;5075772;28;20075;-66
2021/08/28 06:05:24;;;;;;;1.33;0.68;;;;;;;22.19;57.31;102166.88;5075561;28;20052;-66
2021/08/28 06:07:49;;;;;;;2.13;0.98;;;;;;;22.21;57.53;102176.66;5083068;28;20031;-65
2021/08/28 06:10:14;;;;;;;1.73;0.93;;;;;;;22.21;57.94;102170.31;5075900;28;20448;-67
2021/08/28 06:12:40;;;;;;;3.17;0.95;;;;;;;22.17;57.19;102175.28;5075599;28;20024;-67
2021/08/28 06:15:06;;;;;;;1.58;0.70;;;;;;;22.23;58.15;102179.22;5075336;28;20027;-66
2021/08/28 06:17:33;;;;;;;2.92;0.93;;;;;;;22.19;57.42;102175.97;5075389;28;20054;-69
2021/08/28 06:19:58;;;;;;;2.17;0.70;;;;;;;22.18;57.67;102170.66;5075338;28;20525;-67
2021/08/28 06:22:24;;;;;;;1.58;1.00;;;;;;;22.20;57.27;102174.94;5077389;28;20024;-66
2021/08/28 06:24:49;;;;;;;0.68;0.45;;;;;;;22.20;57.66;102171.34;5075109;28;20028;-67
2021/08/28 06:27:15;;;;;;;0.88;0.77;;;;;;;22.18;57.80;102171.50;5075868;28;20070;-66
2021/08/28 06:29:40;;;;;;;0.95;0.82;;;;;;;22.16;57.63;102172.66;5057476;28;20048;-66
2021/08/28 06:32:06;;;;;;;2.97;1.00;;;;;;;22.17;57.62;102182.59;5075296;28;20020;-67
2021/08/28 06:34:31;;;;;;;1.15;0.60;;;;;;;22.21;57.81;102184.00;5077195;28;20025;-66
2021/08/28 06:36:56;;;;;;;3.15;1.02;;;;;;;22.19;57.17;102173.22;5078536;28;20033;-68
2021/08/28 06:39:21;;;;;;;1.40;0.63;;;;;;;22.18;57.01;102170.66;5077385;28;20112;-68
2021/08/28 06:41:47;;;;;;;1.08;0.80;;;;;;;22.27;57.30;102166.91;5075026;28;20028;-66
2021/08/28 06:44:13;;;;;;;3.10;1.20;;;;;;;22.23;58.19;102150.97;5075137;28;20021;-67
2021/08/28 06:46:38;;;;;;;1.40;0.82;;;;;;;22.22;58.05;102166.56;5059220;28;20025;-67
2021/08/28 06:49:10;;;;;;;2.17;0.68;;;;;;;22.24;58.83;102150.81;5057877;28;20051;-66
2021/08/28 06:51:35;;;;;;;1.60;0.90;;;;;;;22.17;57.42;102164.31;5055247;28;20446;-67
2021/08/28 06:54:02;;;;;;;1.25;0.55;;;;;;;22.24;58.64;102153.53;5054780;28;20049;-67
2021/08/28 06:56:28;;;;;;;1.30;0.80;;;;;;;22.23;57.92;102156.44;5054698;28;20458;-69
2021/08/28 06:58:53;;;;;;;0.77;0.55;;;;;;;22.21;57.94;102154.75;5054451;28;20068;-67
2021/08/28 07:01:18;;;;;;;2.05;0.65;;;;;;;22.26;58.08;102159.72;5054441;28;20037;-67
2021/08/28 07:03:44;;;;;;;1.17;0.50;;;;;;;22.28;58.12;102163.13;5055859;28;20033;-67
2021/08/28 07:06:10;;;;;;;1.13;0.70;;;;;;;22.26;58.34;102156.97;5075719;28;20643;-68
2021/08/28 07:08:37;;;;;;;1.05;0.50;;;;;;;22.30;57.97;102155.59;5074812;28;20063;-67
2021/08/28 07:11:04;;;;;;;1.42;0.50;;;;;;;22.30;57.69;102163.81;5072341;28;20027;-68
2021/08/28 07:13:29;;;;;;;1.48;0.60;;;;;;;22.29;58.88;102162.13;5071975;28;20024;-68
2021/08/28 07:15:56;;;;;;;1.13;0.60;;;;;;;22.30;58.52;102152.88;5074123;28;20029;-67
2021/08/28 07:18:21;;;;;;;1.05;0.77;;;;;;;22.30;57.41;102158.34;5074618;28;20373;-68
2021/08/28 07:20:46;;;;;;;1.27;0.40;;;;;;;22.29;59.50;102151.16;5074308;28;20024;-67
2021/08/28 07:23:12;;;;;;;1.42;0.50;;;;;;;22.28;58.62;102154.91;5074012;28;20028;-67
2021/08/28 07:25:38;;;;;;;3.30;0.57;;;;;;;22.26;58.58;102156.97;5074166;28;20029;-68
2021/08/28 07:28:06;;;;;;;2.35;0.57;;;;;;;22.26;58.90;102159.72;5074494;28;20021;-67
2021/08/28 07:30:32;;;;;;;1.52;0.55;;;;;;;22.31;58.26;102149.09;5074225;28;20137;-67
2021/08/28 07:32:58;;;;;;;0.98;0.32;;;;;;;22.26;57.95;102139.69;5076482;28;20029;-67
2021/08/28 07:35:24;;;;;;;1.90;0.60;;;;;;;22.32;59.00;102150.81;5078526;28;20056;-67
2021/08/28 07:37:51;;;;;;;0.93;0.40;;;;;;;22.26;58.50;102151.50;5073914;28;20059;-67
2021/08/28 07:40:17;;;;;;;1.75;0.52;;;;;;;22.32;59.15;102145.34;5073998;28;20536;-66
2021/08/28 07:42:43;;;;;;;1.55;0.50;;;;;;;22.31;57.89;102143.63;5073877;28;20111;-67
2021/08/28 07:45:09;;;;;;;0.95;0.52;;;;;;;22.32;57.95;102145.34;5070628;28;20103;-67
2021/08/28 07:47:34;;;;;;;0.77;0.50;;;;;;;22.36;58.42;102141.25;5055630;28;20051;-66
2021/08/28 07:50:00;;;;;;;1.05;0.40;;;;;;;22.37;58.33;102147.59;5053543;28;20020;-66
2021/08/28 07:52:25;;;;;;;1.90;0.70;;;;;;;22.36;58.03;102151.38;5053731;28;20017;-67
2021/08/28 07:54:50;;;;;;;0.73;0.30;;;;;;;22.31;58.51;102148.25;5065204;28;20062;-65
2021/08/28 07:57:16;;;;;;;1.50;0.50;;;;;;;22.35;58.20;102149.66;5071236;28;20060;-67
2021/08/28 07:59:41;;;;;;;1.02;0.47;;;;;;;22.32;58.52;102142.59;5073670;28;20070;-66
2021/08/28 08:02:08;;;;;;;1.10;0.40;;;;;;;22.37;58.60;102153.94;5076304;28;20111;-66
2021/08/28 08:04:34;;;;;;;1.05;0.43;;;;;;;22.35;58.26;102142.28;5075702;28;20032;-67
2021/08/28 08:06:59;;;;;;;1.75;0.80;;;;;;;22.34;57.85;102147.91;5073435;28;20027;-66
2021/08/28 08:09:24;;;;;;;1.35;0.50;;;;;;;22.33;59.25;102144.31;5073691;28;20438;-66
2021/08/28 08:11:50;;;;;;;2.15;0.40;;;;;;;22.33;58.47;102143.44;5073396;28;20020;-68
2021/08/28 08:14:15;;;;;;;1.70;0.40;;;;;;;22.35;57.64;102146.91;5073690;28;20020;-66
2021/08/28 08:16:41;;;;;;;1.45;0.45;;;;;;;22.34;58.86;102151.53;5075851;28;20024;-66
2021/08/28 08:19:06;;;;;;;1.08;0.40;;;;;;;22.38;58.58;102152.06;5073025;28;20053;-69
2021/08/28 08:21:32;;;;;;;2.35;0.70;;;;;;;22.36;58.85;102149.47;5073371;28;20495;-67
2021/08/28 08:23:57;;;;;;;0.93;0.47;;;;;;;22.42;58.67;102158.91;5072959;28;20056;-67
2021/08/28 08:26:23;;;;;;;0.75;0.32;;;;;;;22.37;58.48;102159.41;5073509;28;20024;-68
2021/08/28 08:28:48;;;;;;;1.27;0.47;;;;;;;22.38;59.04;102154.78;5073675;28;20024;-66
2021/08/28 08:31:13;;;;;;;0.65;0.30;;;;;;;22.39;59.25;102157.38;5078324;28;20066;-68
2021/08/28 08:33:39;;;;;;;1.15;0.38;;;;;;;22.40;58.42;102150.84;5073258;28;20423;-66
2021/08/28 08:36:05;;;;;;;1.75;0.50;;;;;;;22.34;59.26;102154.28;5072955;28;20035;-66
2021/08/28 08:38:30;;;;;;;1.13;0.40;;;;;;;22.41;58.59;102155.31;5073236;28;20063;-68
2021/08/28 08:40:56;;;;;;;1.75;0.45;;;;;;;22.41;58.07;102166.28;5072936;28;20075;-67
2021/08/28 08:43:22;;;;;;;0.77;0.35;;;;;;;22.40;58.48;102153.59;5073286;28;20027;-66
2021/08/28 08:45:48;;;;;;;1.05;0.30;;;;;;;22.38;58.82;102155.66;5066256;28;20048;-68
2021/08/28 08:48:15;;;;;;;3.15;0.47;;;;;;;22.35;57.83;102147.78;5053159;28;20044;-66
2021/08/28 08:50:42;;;;;;;0.85;0.20;;;;;;;22.40;59.23;102150.84;5052846;28;20024;-67
2021/08/28 08:53:09;;;;;;;1.85;0.40;;;;;;;22.36;58.48;102141.25;5053406;28;20029;-66
2021/08/28 08:55:34;;;;;;;0.45;0.30;;;;;;;22.38;59.35;102139.22;5057435;28;20033;-66
2021/08/28 08:58:00;;;;;;;1.10;0.30;;;;;;;22.35;58.24;102142.28;5061875;23;20118;-67
2021/08/28 09:00:26;;;;;;;1.52;0.50;;;;;;;22.38;58.50;102152.06;5093143;28;20036;-66
2021/08/28 09:02:51;;;;;;;1.67;0.60;;;;;;;22.39;59.17;102149.16;5093000;28;20020;-66
2021/08/28 09:05:16;;;;;;;2.08;0.68;;;;;;;22.42;58.60;102137.84;5093874;28;20020;-67
2021/08/28 09:07:42;;;;;;;0.57;0.43;;;;;;;22.42;59.27;102143.31;5097235;28;20028;-66
2021/08/28 09:10:08;;;;;;;0.77;0.47;;;;;;;22.39;58.86;102140.91;5097018;28;20031;-66
2021/08/28 09:12:36;;;;;;;0.80;0.22;;;;;;;22.37;58.84;102156.69;5096985;28;20050;-67
2021/08/28 09:15:04;;;;;;;0.77;0.40;;;;;;;22.41;58.57;102155.31;5098349;28;20061;-67
2021/08/28 09:17:30;;;;;;;0.52;0.30;;;;;;;22.38;58.52;102155.66;5096920;28;20024;-67
2021/08/28 09:19:55;;;;;;;1.05;0.47;;;;;;;22.43;59.25;102147.78;5100802;28;20046;-66
2021/08/28 09:22:47;;;;;;;2.67;0.43;;;;;;;22.42;59.24;102146.06;5110488;28;20043;-66
2021/08/28 09:25:21;;;;;;;1.08;0.40;;;;;;;22.46;58.93;102141.09;5096760;28;20102;-67
2021/08/28 09:27:47;;;;;;;1.00;0.40;;;;;;;22.38;58.51;102135.63;5097519;28;20026;-66
2021/08/28 09:30:25;;;;;;;1.25;0.50;;;;;;;22.46;59.22;102136.47;5096577;28;20024;-67
2021/08/28 09:32:58;;;;;;;3.15;0.43;;;;;;;22.45;58.63;102144.88;5096888;28;20027;-65
2021/08/28 09:35:30;;;;;;;0.45;0.20;;;;;;;22.47;59.05;102142.81;5096812;28;20027;-66
2021/08/28 09:38:03;;;;;;;0.75;0.38;;;;;;;22.44;59.80;102133.06;5094803;28;20073;-66
2021/08/28 09:40:40;;;;;;;1.33;0.67;;;;;;;22.47;58.11;102138.19;5080897;28;20046;-68
2021/08/28 09:43:16;;;;;;;3.20;0.60;;;;;;;22.40;59.26;102137.16;5096878;28;20027;-67
2021/08/28 09:45:42;;;;;;;0.57;0.40;;;;;;;22.41;59.70;102138.88;5096110;28;20039;-67
2021/08/28 09:48:10;;;;;;;0.25;0.25;;;;;;;22.43;59.98;102144.19;5096318;28;20607;-68
2021/08/28 09:50:41;;;;;;;0.82;0.40;;;;;;;22.40;58.84;102148.13;5096385;28;20609;-67
2021/08/28 09:53:17;;;;;;;1.27;0.43;;;;;;;22.43;58.56;102142.28;5104676;28;20544;-68
2021/08/28 09:55:43;;;;;;;2.22;0.98;;;;;;;22.47;59.28;102142.81;5096226;28;20407;-67
2021/08/28 09:58:10;;;;;;;0.90;0.47;;;;;;;22.48;58.48;102133.56;5095720;28;20052;-68
2021/08/28 10:00:45;;;;;;;0.20;0.10;;;;;;;22.47;58.37;102132.72;5096177;28;20423;-68
2021/08/28 10:03:12;;;;;;;1.30;0.30;;;;;;;22.44;59.19;102144.00;5095875;28;20028;-67
2021/08/28 10:05:39;;;;;;;1.10;0.40;;;;;;;22.47;59.47;102142.81;5096101;28;20376;-68
2021/08/28 10:08:08;;;;;;;1.63;0.30;;;;;;;22.46;59.55;102147.44;5098177;28;20317;-68
2021/08/28 10:10:39;;;;;;;2.67;0.50;;;;;;;22.43;58.06;102145.03;5095873;28;20095;-67
2021/08/28 10:13:06;;;;;;;1.42;0.55;;;;;;;22.45;58.62;102145.72;5095471;28;20024;-68
2021/08/28 10:15:33;;;;;;;1.25;0.50;;;;;;;22.43;59.06;102142.28;5077638;28;20111;-67
2021/08/28 10:18:01;;;;;;;0.38;0.10;;;;;;;22.46;58.76;102136.47;5095357;28;20023;-68
2021/08/28 10:20:28;;;;;;;1.23;0.30;;;;;;;22.50;58.76;102137.00;5101091;28;20036;-68
2021/08/28 10:22:59;;;;;;;1.45;0.50;;;;;;;22.42;59.46;102135.09;5095775;28;20034;-67
2021/08/28 10:25:27;;;;;;;1.20;0.32;;;;;;;22.48;58.73;102128.94;5095730;28;20028;-68
2021/08/28 10:27:54;;;;;;;1.67;0.30;;;;;;;22.48;58.27;102123.47;5077367;28;20059;-67
2021/08/28 10:30:22;;;;;;;1.33;0.30;;;;;;;22.46;59.39;102141.97;5095529;28;20535;-68
2021/08/28 10:32:48;;;;;;;0.95;0.40;;;;;;;22.46;58.88;102133.72;5095494;28;20107;-68
2021/08/28 10:35:17;;;;;;;1.58;0.30;;;;;;;22.49;58.96;102130.66;5097134;28;20028;-67
2021/08/28 10:37:43;;;;;;;1.23;0.30;;;;;;;22.48;58.30;102133.56;5095237;28;20028;-69
2021/08/28 10:40:24;;;;;;;0.90;0.30;;;;;;;22.48;58.73;102137.16;5095216;28;20028;-68
2021/08/28 10:42:54;;;;;;;1.67;0.50;;;;;;;22.48;59.30;102133.56;5095197;28;20028;-67
2021/08/28 10:45:30;;;;;;;1.20;0.30;;;;;;;22.47;58.47;102138.19;5095303;28;20016;-67
2021/08/28 10:47:58;;;;;;;1.17;0.50;;;;;;;22.50;59.18;102129.63;5101061;28;20052;-66
2021/08/28 10:50:24;;;;;;;1.15;0.30;;;;;;;22.48;58.62;102137.16;5097719;28;20028;-67
2021/08/28 10:52:52;;;;;;;2.13;0.50;;;;;;;22.50;59.24;102134.25;5094904;28;20024;-67
2021/08/28 10:55:17;;;;;;;1.27;0.50;;;;;;;22.43;59.81;102136.81;5095121;28;20024;-68
2021/08/28 10:57:43;;;;;;;0.95;0.45;;;;;;;22.48;59.15;102139.03;5094328;28;20063;-69
2021/08/28 11:00:17;;;;;;;0.43;0.28;;;;;;;22.47;58.85;102138.19;5094826;28;20031;-67
2021/08/28 11:03:00;;;;;;;1.83;0.35;;;;;;;22.54;59.59;102137.53;5095508;28;20046;-68
2021/08/28 11:05:30;;;;;;;3.08;1.00;;;;;;;22.50;59.79;102137.84;5094956;28;20130;-68
2021/08/28 11:08:13;;;;;;;1.25;0.50;;;;;;;22.52;58.58;102145.94;5094540;28;20020;-67
2021/08/28 11:10:39;;;;;;;0.80;0.43;;;;;;;22.51;58.60;102144.22;5094981;28;20123;-66
2021/08/28 11:13:05;;;;;;;0.68;0.20;;;;;;;22.51;58.35;102139.59;5094687;28;20059;-65
2021/08/28 11:15:35;;;;;;;2.10;0.57;;;;;;;22.52;58.67;102141.31;5094943;28;20024;-66
2021/08/28 11:18:01;;;;;;;0.88;0.40;;;;;;;22.51;58.49;102144.22;5102031;28;20032;-64
2021/08/28 11:20:39;;;;;;;1.98;0.30;;;;;;;22.53;58.92;102158.59;5094516;28;20073;-66
2021/08/28 11:23:08;;;;;;;7.07;0.70;;;;;;;22.44;58.38;102154.13;5094525;28;20380;-66
2021/08/28 11:25:36;;;;;;;1.20;0.45;;;;;;;22.55;59.14;102158.44;5094577;28;20028;-66